createdAt,value
2023-03-13T00:01:47.997Z,100059.66
2023-03-13T00:04:15.606Z,100055.56
2023-03-13T00:06:43.889Z,100054.88
2023-03-13T00:09:16.919Z,100051.22
2023-03-13T00:11:47.269Z,100053.97
2023-03-13T00:14:14.592Z,100058.63
2023-03-13T00:16:42.040Z,100051.41
2023-03-13T00:19:12.898Z,100054.88
2023-03-13T00:21:42.347Z,100048.94
2023-03-13T00:24:12.969Z,100039.06
2023-03-13T00:26:42.602Z,100037.84
2023-03-13T00:29:12.707Z,100040.59
2023-03-13T00:31:42.417Z,100031.53
2023-03-13T00:34:12.588Z,100032.84
2023-03-13T00:36:45.440Z,100030.69
2023-03-13T00:39:12.836Z,100029.91
2023-03-13T00:41:43.946Z,100033.38
2023-03-13T00:44:15.156Z,100027.25
2023-03-13T00:46:45.538Z,100032.34
2023-03-13T00:49:13.098Z,100027.94
2023-03-13T00:51:41.549Z,100018.06
2023-03-13T00:54:09.934Z,100020.72
2023-03-13T00:56:38.790Z,100019.63
2023-03-13T00:59:06.888Z,100012.47
2023-03-13T01:01:37.517Z,100003.22
2023-03-13T01:04:13.062Z,100004.94
2023-03-13T01:06:43.263Z,100009.03
2023-03-13T01:09:17.072Z,100000.94
2023-03-13T01:11:47.297Z,100005.41
2023-03-13T01:14:20.622Z,99991.19
2023-03-13T01:16:49.884Z,99991.91
2023-03-13T01:19:18.073Z,99996.59
2023-03-13T01:21:47.780Z,99991.41
2023-03-13T01:24:19.254Z,99986.28
2023-03-13T01:26:49.269Z,99985.81
2023-03-13T01:29:19.341Z,99999.94
2023-03-13T01:31:49.394Z,99998.53
2023-03-13T01:34:19.478Z,99983.69
2023-03-13T01:36:51.205Z,99987.53
2023-03-13T01:39:21.304Z,99981.53
2023-03-13T01:41:51.376Z,99980.00
2023-03-13T01:44:26.869Z,99984.69
2023-03-13T01:46:56.521Z,99981.22
2023-03-13T01:49:35.570Z,99979.38
2023-03-13T01:52:14.806Z,99976.94
2023-03-13T01:55:03.106Z,99968.69
2023-03-13T01:57:50.531Z,99971.63
2023-03-13T02:00:36.932Z,99963.38
2023-03-13T02:03:20.234Z,99954.75
2023-03-13T02:05:51.666Z,99948.31
2023-03-13T02:08:35.195Z,99945.44
2023-03-13T02:11:43.086Z,99940.16
2023-03-13T02:14:14.061Z,99942.25
2023-03-13T02:16:48.853Z,99939.72
2023-03-13T02:19:50.153Z,99942.69
2023-03-13T02:22:54.759Z,99933.25
2023-03-13T02:25:24.637Z,99925.38
2023-03-13T02:28:05.002Z,99922.75
2023-03-13T02:30:35.604Z,99911.84
2023-03-13T02:33:06.042Z,99920.09
2023-03-13T02:35:36.574Z,99918.28
2023-03-13T02:38:12.836Z,99913.97
2023-03-13T02:40:49.163Z,99913.88
2023-03-13T02:43:32.024Z,99910.28
2023-03-13T02:46:05.831Z,99907.84
2023-03-13T02:48:51.096Z,99907.63
2023-03-13T02:51:41.499Z,99906.78
2023-03-13T02:54:23.058Z,99893.56
2023-03-13T02:57:03.078Z,99893.06
2023-03-13T02:59:34.999Z,99892.03
2023-03-13T03:02:05.539Z,99893.38
2023-03-13T03:04:35.574Z,99877.50
2023-03-13T03:07:05.704Z,99868.19
2023-03-13T03:09:35.819Z,99871.69
2023-03-13T03:12:09.079Z,99865.00
2023-03-13T03:14:40.153Z,99859.00
2023-03-13T03:17:10.211Z,99856.31
2023-03-13T03:19:40.222Z,99858.16
2023-03-13T03:22:10.606Z,99849.41
2023-03-13T03:24:40.732Z,99853.50
2023-03-13T03:27:10.735Z,99852.59
2023-03-13T03:29:40.919Z,99851.16
2023-03-13T03:32:10.921Z,99848.44
2023-03-13T03:34:41.028Z,99847.72
2023-03-13T03:37:11.009Z,99844.41
2023-03-13T03:39:39.641Z,99843.28
2023-03-13T03:42:13.150Z,99835.78
2023-03-13T03:44:43.638Z,99822.44
2023-03-13T03:47:13.709Z,99824.63
2023-03-13T03:49:42.103Z,99817.81
2023-03-13T03:52:10.503Z,99818.19
2023-03-13T03:54:38.858Z,99816.88
2023-03-13T03:57:07.349Z,99810.59
2023-03-13T03:59:35.801Z,99806.34
2023-03-13T04:02:04.736Z,99806.09
2023-03-13T04:04:32.642Z,99793.50
2023-03-13T04:07:01.006Z,99792.63
2023-03-13T04:09:31.914Z,99785.34
2023-03-13T04:12:00.814Z,99783.72
2023-03-13T04:14:29.198Z,99783.72
2023-03-13T04:16:57.645Z,99780.75
2023-03-13T04:19:26.071Z,99767.91
2023-03-13T04:21:54.429Z,99770.81
2023-03-13T04:24:22.863Z,99767.97
2023-03-13T04:26:51.208Z,99760.81
2023-03-13T04:29:19.683Z,99755.78
2023-03-13T04:31:48.086Z,99758.53
2023-03-13T04:34:16.456Z,99747.19
2023-03-13T04:36:44.942Z,99743.75
2023-03-13T04:39:13.337Z,99739.44
2023-03-13T04:41:41.734Z,99733.56
2023-03-13T04:44:10.251Z,99736.66
2023-03-13T04:46:38.547Z,99731.00
2023-03-13T04:49:08.815Z,99727.81
2023-03-13T04:51:39.021Z,99730.72
2023-03-13T04:54:09.530Z,99720.47
2023-03-13T04:56:43.597Z,99721.56
2023-03-13T04:59:16.334Z,99713.63
2023-03-13T05:01:45.683Z,99706.69
2023-03-13T05:04:15.835Z,99712.38
2023-03-13T05:06:45.692Z,99705.72
2023-03-13T05:09:15.630Z,99693.59
2023-03-13T05:11:45.321Z,99689.88
2023-03-13T05:14:15.133Z,99683.88
2023-03-13T05:16:44.967Z,99673.13
2023-03-13T05:19:14.733Z,99666.94
2023-03-13T05:21:44.781Z,99657.25
2023-03-13T05:24:14.425Z,99658.84
2023-03-13T05:26:44.136Z,99658.47
2023-03-13T05:29:13.977Z,99661.22
2023-03-13T05:31:43.776Z,99655.22
2023-03-13T05:34:13.571Z,99658.66
2023-03-13T05:36:43.330Z,99648.31
2023-03-13T05:39:13.186Z,99632.75
2023-03-13T05:41:42.970Z,99636.78
2023-03-13T05:44:12.750Z,99621.38
2023-03-13T05:46:42.525Z,99613.91
2023-03-13T05:49:12.501Z,99616.03
2023-03-13T05:51:42.142Z,99606.00
2023-03-13T05:54:14.936Z,99603.41
2023-03-13T05:56:45.109Z,99588.81
2023-03-13T05:59:15.069Z,99594.00
2023-03-13T06:01:44.882Z,99594.50
2023-03-13T06:04:15.504Z,99589.31
2023-03-13T06:06:46.564Z,99586.41
2023-03-13T06:09:15.245Z,99582.84
2023-03-13T06:11:45.065Z,99583.34
2023-03-13T06:14:14.804Z,99575.69
2023-03-13T06:16:45.270Z,99575.69
2023-03-13T06:19:15.177Z,99571.16
2023-03-13T06:21:46.087Z,99557.69
2023-03-13T06:24:16.530Z,99556.25
2023-03-13T06:26:50.077Z,99550.41
2023-03-13T06:29:20.052Z,99542.63
2023-03-13T06:31:51.400Z,99538.06
2023-03-13T06:34:20.092Z,99532.41
2023-03-13T06:36:49.823Z,99527.88
2023-03-13T06:39:19.666Z,99514.09
2023-03-13T06:41:49.445Z,99515.38
2023-03-13T06:44:19.156Z,99503.47
2023-03-13T06:46:48.871Z,99490.84
2023-03-13T06:49:18.832Z,99485.97
2023-03-13T06:51:48.412Z,99490.00
2023-03-13T06:54:18.285Z,99472.31
2023-03-13T06:56:46.685Z,99470.22
2023-03-13T06:59:15.076Z,99470.38
2023-03-13T07:01:43.470Z,99466.19
2023-03-13T07:04:14.508Z,99472.56
2023-03-13T07:06:43.570Z,99469.81
2023-03-13T07:09:11.762Z,99470.59
2023-03-13T07:11:40.140Z,99466.41
2023-03-13T07:14:16.633Z,99463.28
2023-03-13T07:16:47.852Z,99469.06
2023-03-13T07:19:17.849Z,99458.69
2023-03-13T07:21:49.686Z,99456.16
2023-03-13T07:24:17.795Z,99449.84
2023-03-13T07:27:02.059Z,99446.56
2023-03-13T07:29:34.258Z,99450.31
2023-03-13T07:32:04.365Z,99447.41
2023-03-13T07:34:32.668Z,99450.13
2023-03-13T07:37:00.956Z,99450.94
2023-03-13T07:39:29.403Z,99440.63
2023-03-13T07:41:57.926Z,99435.16
2023-03-13T07:44:26.672Z,99428.06
2023-03-13T07:46:55.193Z,99422.97
2023-03-13T07:49:23.739Z,99423.75
2023-03-13T07:51:52.363Z,99419.53
2023-03-13T07:54:20.539Z,99405.31
2023-03-13T07:56:49.203Z,99413.56
2023-03-13T07:59:17.529Z,99397.47
2023-03-13T08:01:45.888Z,99392.69
2023-03-13T08:04:14.973Z,99386.47
2023-03-13T08:06:42.770Z,99393.97
2023-03-13T08:09:12.254Z,99396.25
2023-03-13T08:11:41.279Z,99392.28
2023-03-13T08:14:11.121Z,99394.50
2023-03-13T08:16:39.645Z,99379.50
2023-03-13T08:19:08.022Z,99375.19
2023-03-13T08:21:38.457Z,99368.22
2023-03-13T08:24:13.018Z,99365.34
2023-03-13T08:26:42.961Z,99361.34
2023-03-13T08:29:15.612Z,99366.09
2023-03-13T08:31:51.520Z,99360.75
2023-03-13T08:34:21.833Z,99363.91
2023-03-13T08:36:52.954Z,99357.19
2023-03-13T08:39:23.156Z,99342.19
2023-03-13T08:41:53.194Z,99354.06
2023-03-13T08:44:22.647Z,99339.00
2023-03-13T08:46:52.510Z,99341.66
2023-03-13T08:49:22.513Z,99345.31
2023-03-13T08:51:52.530Z,99344.66
2023-03-13T08:54:22.082Z,99324.72
2023-03-13T08:56:51.829Z,99320.00
2023-03-13T08:59:21.649Z,99319.22
2023-03-13T09:01:51.563Z,99321.53
2023-03-13T09:04:21.204Z,99309.13
2023-03-13T09:06:50.942Z,99315.09
2023-03-13T09:09:20.763Z,99312.47
2023-03-13T09:11:50.563Z,99301.50
2023-03-13T09:14:20.348Z,99304.28
2023-03-13T09:16:50.163Z,99309.13
2023-03-13T09:19:19.940Z,99308.22
2023-03-13T09:21:49.764Z,99303.56
2023-03-13T09:24:20.258Z,99306.81
2023-03-13T09:27:00.644Z,99310.41
2023-03-13T09:29:32.070Z,99307.16
2023-03-13T09:32:01.372Z,99302.44
2023-03-13T09:34:32.114Z,99314.31
2023-03-13T09:37:02.089Z,99303.59
2023-03-13T09:39:31.948Z,99307.50
2023-03-13T09:42:44.401Z,99306.13
2023-03-13T09:45:38.803Z,99301.53
2023-03-13T09:48:33.188Z,99287.44
2023-03-13T09:51:19.649Z,99284.47
2023-03-13T09:54:14.110Z,99285.84
2023-03-13T09:57:37.865Z,99278.44
2023-03-13T10:00:37.193Z,99282.25
2023-03-13T10:03:28.996Z,99290.28
2023-03-13T10:06:19.889Z,99286.16
2023-03-13T10:08:47.184Z,99285.00
2023-03-13T10:12:09.683Z,99281.34
2023-03-13T10:15:21.659Z,99289.84
2023-03-13T10:17:50.100Z,99270.91
2023-03-13T10:20:27.218Z,99273.44
2023-03-13T10:23:27.652Z,99273.47
2023-03-13T10:25:57.640Z,99272.31
2023-03-13T10:28:27.649Z,99261.28
2023-03-13T10:31:33.196Z,99277.72
2023-03-13T10:34:14.682Z,99265.81
2023-03-13T10:36:54.782Z,99260.59
2023-03-13T10:39:29.613Z,99276.16
2023-03-13T10:42:24.050Z,99246.91
2023-03-13T10:45:07.145Z,99253.28
2023-03-13T10:47:38.438Z,99240.50
2023-03-13T10:50:20.893Z,99249.47
2023-03-13T10:52:53.076Z,99242.59
2023-03-13T10:55:27.112Z,99230.22
2023-03-13T10:58:06.298Z,99225.91
2023-03-13T11:00:41.300Z,99227.03
2023-03-13T11:03:35.208Z,99227.53
2023-03-13T11:06:05.764Z,99208.66
2023-03-13T11:08:37.489Z,99217.63
2023-03-13T11:11:20.106Z,99219.53
2023-03-13T11:13:49.941Z,99210.09
2023-03-13T11:16:29.450Z,99206.44
2023-03-13T11:19:57.024Z,99201.34
2023-03-13T11:23:11.146Z,99187.50
2023-03-13T11:26:17.123Z,99181.38
2023-03-13T11:29:09.614Z,99183.81
2023-03-13T11:32:00.646Z,99193.97
2023-03-13T11:34:58.801Z,99177.59
2023-03-13T11:37:37.065Z,99167.91
2023-03-13T11:40:54.774Z,99177.97
2023-03-13T11:44:23.910Z,99186.34
2023-03-13T11:47:30.538Z,99169.94
2023-03-13T11:50:31.216Z,99169.84
2023-03-13T11:54:10.442Z,99174.97
2023-03-13T11:56:59.777Z,99166.13
2023-03-13T11:59:56.912Z,99174.25
2023-03-13T12:02:56.964Z,99169.06
2023-03-13T12:05:51.920Z,99170.44
2023-03-13T12:08:46.278Z,99174.19
2023-03-13T12:11:36.530Z,99177.34
2023-03-13T12:14:44.636Z,99163.94
2023-03-13T12:17:33.775Z,99166.97
2023-03-13T12:20:50.198Z,99162.56
2023-03-13T12:23:41.970Z,99167.13
2023-03-13T12:26:20.692Z,99166.13
2023-03-13T12:29:46.016Z,99159.94
2023-03-13T12:32:49.689Z,99157.66
2023-03-13T12:35:35.189Z,99159.28
2023-03-13T12:38:13.890Z,99162.22
2023-03-13T12:41:43.335Z,99158.56
2023-03-13T12:44:20.577Z,99145.84
2023-03-13T12:47:26.953Z,99151.00
2023-03-13T12:50:28.749Z,99133.75
2023-03-13T12:53:40.959Z,99128.63
2023-03-13T12:56:18.927Z,99139.97
2023-03-13T12:59:03.091Z,99118.88
2023-03-13T13:01:44.135Z,99120.13
2023-03-13T13:04:47.205Z,99106.16
2023-03-13T13:07:38.693Z,99103.72
2023-03-13T13:10:11.508Z,99114.53
2023-03-13T13:13:07.857Z,99109.34
2023-03-13T13:16:06.266Z,99110.94
2023-03-13T13:18:36.375Z,99106.53
2023-03-13T13:21:04.996Z,99098.94
2023-03-13T13:23:46.851Z,99103.75
2023-03-13T13:26:31.060Z,99113.34
2023-03-13T13:29:21.782Z,99102.53
2023-03-13T13:31:51.726Z,99102.56
2023-03-13T13:34:32.088Z,99088.94
2023-03-13T13:37:27.445Z,99088.97
2023-03-13T13:40:16.496Z,99086.56
2023-03-13T13:42:54.301Z,99079.00
2023-03-13T13:45:30.341Z,99079.38
2023-03-13T13:48:28.352Z,99086.97
2023-03-13T13:51:19.710Z,99081.75
2023-03-13T13:54:18.313Z,99077.34
2023-03-13T13:56:59.331Z,99078.94
2023-03-13T14:00:06.528Z,99082.53
2023-03-13T14:02:55.531Z,99090.53
2023-03-13T14:05:30.467Z,99077.34
2023-03-13T14:08:31.639Z,99078.97
2023-03-13T14:11:34.242Z,99072.97
2023-03-13T14:14:21.217Z,99071.72
2023-03-13T14:16:58.046Z,99067.66
2023-03-13T14:19:43.300Z,99070.09
2023-03-13T14:22:16.308Z,99081.34
2023-03-13T14:24:58.919Z,99076.56
2023-03-13T14:27:26.748Z,99071.38
2023-03-13T14:30:09.525Z,99062.53
2023-03-13T14:32:40.425Z,99069.75
2023-03-13T14:35:20.835Z,99064.97
2023-03-13T14:38:03.336Z,99068.16
2023-03-13T14:40:39.335Z,99063.38
2023-03-13T14:43:27.547Z,99061.81
2023-03-13T14:45:58.664Z,99058.59
2023-03-13T14:48:33.946Z,99054.97
2023-03-13T14:51:24.359Z,99058.16
2023-03-13T14:54:03.879Z,99047.78
2023-03-13T14:56:45.181Z,99057.81
2023-03-13T14:59:28.427Z,99050.22
2023-03-13T15:02:24.426Z,99040.22
2023-03-13T15:05:07.482Z,99045.78
2023-03-13T15:07:54.437Z,99031.41
2023-03-13T15:10:37.194Z,99026.59
2023-03-13T15:13:33.541Z,99033.94
2023-03-13T15:16:20.276Z,99024.38
2023-03-13T15:18:54.569Z,99027.63
2023-03-13T15:21:34.002Z,99026.19
2023-03-13T15:24:15.461Z,99016.84
2023-03-13T15:26:42.896Z,99027.59
2023-03-13T15:29:11.858Z,99011.53
2023-03-13T15:31:40.364Z,99012.75
2023-03-13T15:34:15.126Z,99014.38
2023-03-13T15:36:45.133Z,99011.34
2023-03-13T15:39:20.499Z,99007.47
2023-03-13T15:41:51.220Z,99004.31
2023-03-13T15:44:21.332Z,98992.72
2023-03-13T15:46:51.376Z,98991.94
2023-03-13T15:49:21.525Z,98995.09
2023-03-13T15:51:51.544Z,98976.66
2023-03-13T15:54:21.576Z,98986.25
2023-03-13T15:56:52.876Z,98974.69
2023-03-13T15:59:22.930Z,98969.53
2023-03-13T16:01:52.957Z,98961.50
2023-03-13T16:04:23.078Z,98969.84
2023-03-13T16:06:53.100Z,98969.03
2023-03-13T16:09:23.134Z,98967.03
2023-03-13T16:11:53.143Z,98958.59
2023-03-13T16:14:23.144Z,98947.13
2023-03-13T16:16:53.932Z,98939.47
2023-03-13T16:19:24.080Z,98938.28
2023-03-13T16:21:54.226Z,98922.72
2023-03-13T16:24:24.266Z,98914.78
2023-03-13T16:26:54.330Z,98905.22
2023-03-13T16:29:24.435Z,98908.34
2023-03-13T16:31:54.458Z,98906.69
2023-03-13T16:34:24.471Z,98917.81
2023-03-13T16:36:54.458Z,98914.25
2023-03-13T16:39:24.521Z,98916.25
2023-03-13T16:41:54.515Z,98906.25
2023-03-13T16:44:27.030Z,98907.47
2023-03-13T16:47:05.504Z,98893.09
2023-03-13T16:49:36.303Z,98891.50
2023-03-13T16:52:06.462Z,98892.31
2023-03-13T16:54:36.436Z,98891.06
2023-03-13T16:57:19.900Z,98886.94
2023-03-13T16:59:48.140Z,98883.38
2023-03-13T17:02:20.478Z,98874.22
2023-03-13T17:04:49.037Z,98865.03
2023-03-13T17:07:27.901Z,98869.81
2023-03-13T17:09:57.985Z,98869.50
2023-03-13T17:12:28.045Z,98872.13
2023-03-13T17:14:58.091Z,98883.25
2023-03-13T17:17:29.392Z,98874.09
2023-03-13T17:19:59.400Z,98872.53
2023-03-13T17:22:29.397Z,98875.25
2023-03-13T17:24:59.390Z,98885.91
2023-03-13T17:27:29.676Z,98887.53
2023-03-13T17:29:59.873Z,98889.59
2023-03-13T17:32:30.121Z,98888.78
2023-03-13T17:35:00.181Z,98887.53
2023-03-13T17:37:30.664Z,98889.91
2023-03-13T17:40:00.911Z,98885.44
2023-03-13T17:42:31.214Z,98891.38
2023-03-13T17:45:01.220Z,98891.50
2023-03-13T17:47:31.264Z,98895.94
2023-03-13T17:50:01.400Z,98895.09
2023-03-13T17:52:31.479Z,98880.34
2023-03-13T17:54:59.888Z,98881.44
2023-03-13T17:57:28.408Z,98882.94
2023-03-13T17:59:56.718Z,98894.91
2023-03-13T18:02:25.402Z,98879.81
2023-03-13T18:04:53.743Z,98870.69
2023-03-13T18:07:29.871Z,98869.09
2023-03-13T18:09:59.942Z,98873.94
2023-03-13T18:12:29.994Z,98882.44
2023-03-13T18:15:00.012Z,98880.38
2023-03-13T18:17:30.893Z,98877.16
2023-03-13T18:20:00.933Z,98872.72
2023-03-13T18:22:31.068Z,98858.41
2023-03-13T18:25:01.065Z,98856.41
2023-03-13T18:27:31.291Z,98864.00
2023-03-13T18:30:01.296Z,98855.81
2023-03-13T18:32:31.373Z,98867.31
2023-03-13T18:35:01.406Z,98861.78
2023-03-13T18:37:33.151Z,98854.19
2023-03-13T18:40:07.389Z,98862.13
2023-03-13T18:42:37.390Z,98864.44
2023-03-13T18:45:09.975Z,98850.59
2023-03-13T18:47:39.967Z,98849.72
2023-03-13T18:50:36.490Z,98838.66
2023-03-13T18:53:06.986Z,98837.47
2023-03-13T18:55:37.187Z,98840.59
2023-03-13T18:58:11.160Z,98844.53
2023-03-13T19:00:41.377Z,98840.53
2023-03-13T19:03:11.572Z,98836.91
2023-03-13T19:05:41.632Z,98837.66
2023-03-13T19:08:11.639Z,98828.94
2023-03-13T19:10:41.723Z,98835.63
2023-03-13T19:13:11.767Z,98836.38
2023-03-13T19:15:41.812Z,98829.66
2023-03-13T19:18:12.364Z,98826.34
2023-03-13T19:20:42.516Z,98810.28
2023-03-13T19:23:10.828Z,98809.31
2023-03-13T19:25:39.474Z,98808.13
2023-03-13T19:28:10.185Z,98809.63
2023-03-13T19:30:39.455Z,98815.25
2023-03-13T19:33:07.549Z,98807.31
2023-03-13T19:35:35.956Z,98792.25
2023-03-13T19:38:04.329Z,98795.41
2023-03-13T19:40:33.030Z,98794.53
2023-03-13T19:43:01.239Z,98776.69
2023-03-13T19:45:29.633Z,98775.84
2023-03-13T19:47:58.030Z,98775.41
2023-03-13T19:50:31.138Z,98775.06
2023-03-13T19:53:01.345Z,98781.88
2023-03-13T19:55:31.636Z,98784.56
2023-03-13T19:58:04.016Z,98785.28
2023-03-13T20:00:34.906Z,98795.31
2023-03-13T20:03:04.947Z,98786.50
2023-03-13T20:05:35.121Z,98780.84
2023-03-13T20:08:05.173Z,98782.09
2023-03-13T20:10:35.486Z,98768.88
2023-03-13T20:13:05.498Z,98773.69
2023-03-13T20:15:35.668Z,98758.06
2023-03-13T20:18:05.857Z,98761.41
2023-03-13T20:20:36.048Z,98761.03
2023-03-13T20:23:06.316Z,98755.41
2023-03-13T20:25:36.359Z,98753.81
2023-03-13T20:28:06.405Z,98751.88
2023-03-13T20:30:43.024Z,98754.81
2023-03-13T20:33:13.463Z,98756.72
2023-03-13T20:35:43.567Z,98744.72
2023-03-13T20:38:12.053Z,98742.81
2023-03-13T20:40:40.407Z,98736.63
2023-03-13T20:43:08.886Z,98735.97
2023-03-13T20:45:37.359Z,98734.00
2023-03-13T20:48:06.016Z,98740.16
2023-03-13T20:50:34.998Z,98744.53
2023-03-13T20:53:02.984Z,98742.09
2023-03-13T20:55:32.022Z,98751.06
2023-03-13T20:58:00.622Z,98747.84
2023-03-13T21:00:27.724Z,98744.97
2023-03-13T21:02:56.186Z,98747.66
2023-03-13T21:05:24.711Z,98736.53
2023-03-13T21:07:53.298Z,98733.88
2023-03-13T21:10:21.729Z,98742.94
2023-03-13T21:12:49.882Z,98746.66
2023-03-13T21:15:18.479Z,98751.41
2023-03-13T21:17:46.727Z,98744.97
2023-03-13T21:20:15.456Z,98743.28
2023-03-13T21:22:44.231Z,98746.72
2023-03-13T21:25:13.210Z,98742.81
2023-03-13T21:27:43.806Z,98751.13
2023-03-13T21:30:18.375Z,98744.47
2023-03-13T21:32:49.179Z,98758.78
2023-03-13T21:35:19.648Z,98762.44
2023-03-13T21:37:49.686Z,98767.56
2023-03-13T21:40:19.930Z,98771.22
2023-03-13T21:42:49.928Z,98765.63
2023-03-13T21:45:20.028Z,98745.69
2023-03-13T21:47:50.061Z,98752.75
2023-03-13T21:53:10.096Z,98744.78
2023-03-13T21:55:40.144Z,98739.63
2023-03-13T21:58:10.164Z,98739.63
2023-03-13T22:00:40.180Z,98728.84
2023-03-13T22:03:10.239Z,98716.00
2023-03-13T22:05:44.934Z,98730.13
2023-03-13T22:08:15.795Z,98733.94
2023-03-13T22:10:54.949Z,98730.75
2023-03-13T22:13:25.071Z,98737.44
2023-03-13T22:15:55.296Z,98735.59
2023-03-13T22:18:25.407Z,98734.13
2023-03-13T22:21:01.601Z,98733.84
2023-03-13T22:23:31.740Z,98729.72
2023-03-13T22:26:01.800Z,98725.63
2023-03-13T22:28:32.104Z,98719.28
2023-03-13T22:31:06.348Z,98718.66
2023-03-13T22:33:35.375Z,98700.22
2023-03-13T22:36:06.533Z,98696.25
2023-03-13T22:38:39.138Z,98708.09
2023-03-13T22:41:13.775Z,98716.88
2023-03-13T22:43:44.760Z,98714.38
2023-03-13T22:46:15.552Z,98700.34
2023-03-13T22:48:45.729Z,98697.25
2023-03-13T22:51:16.769Z,98705.03
2023-03-13T22:53:46.795Z,98699.97
2023-03-13T22:56:17.067Z,98707.09
2023-03-13T22:58:47.420Z,98700.38
2023-03-13T23:01:19.198Z,98708.94
2023-03-13T23:03:49.240Z,98706.84
2023-03-13T23:06:24.246Z,98702.72
2023-03-13T23:08:54.497Z,98691.97
2023-03-13T23:11:24.702Z,98701.97
2023-03-13T23:13:53.072Z,98707.28
2023-03-13T23:16:21.354Z,98709.00
2023-03-13T23:18:50.129Z,98686.84
2023-03-13T23:21:18.485Z,98684.25
2023-03-13T23:23:47.219Z,98689.50
2023-03-13T23:26:16.549Z,98683.41
2023-03-13T23:28:46.375Z,98672.50
2023-03-13T23:31:22.297Z,98681.28
2023-03-13T23:33:53.137Z,98679.75
2023-03-13T23:36:23.207Z,98669.38
2023-03-13T23:38:57.391Z,98666.59
2023-03-13T23:41:27.461Z,98686.34
2023-03-13T23:43:58.546Z,98683.63
2023-03-13T23:46:28.582Z,98669.69
2023-03-13T23:48:59.426Z,98673.78
2023-03-13T23:51:29.455Z,98668.59
2023-03-13T23:54:00.872Z,98666.84
2023-03-13T23:56:34.089Z,98668.38
2023-03-13T23:59:04.112Z,98671.97
